sensor_id;sensor_type;location;lat;lon;timestamp;pressure;altitude;pressure_sealevel;temperature
49154;BMP280;49455;52.252;9.124;2022-10-16T06:39:56;99303.91;;;12.97
49154;BMP280;49455;52.252;9.124;2022-10-16T06:44:56;99305.09;;;13.25
49154;BMP280;49455;52.252;9.124;2022-10-16T06:49:57;99302.78;;;13.52
49154;BMP280;49455;52.252;9.124;2022-10-16T06:54:57;99302.91;;;13.66
49154;BMP280;49455;52.252;9.124;2022-10-16T06:59:58;99323.75;;;13.75
49154;BMP280;49455;52.252;9.124;2022-10-16T07:04:58;99331.69;;;13.87
49154;BMP280;49455;52.252;9.124;2022-10-16T07:09:58;99340.47;;;14.02
49154;BMP280;49455;52.252;9.124;2022-10-16T07:14:59;99337.97;;;14.13
49154;BMP280;49455;52.252;9.124;2022-10-16T07:19:59;99331.22;;;14.35
49154;BMP280;49455;52.252;9.124;2022-10-16T07:25:07;99350.38;;;14.52
49154;BMP280;49455;52.252;9.124;2022-10-16T07:30:08;99367.88;;;14.80
49154;BMP280;49455;52.252;9.124;2022-10-16T07:35:09;99373.13;;;14.87
49154;BMP280;49455;52.252;9.124;2022-10-16T07:40:09;99378.41;;;15.05
49154;BMP280;49455;52.252;9.124;2022-10-16T07:45:10;99391.53;;;15.19
49154;BMP280;49455;52.252;9.124;2022-10-16T07:50:10;99397.66;;;15.30
49154;BMP280;49455;52.252;9.124;2022-10-16T07:55:11;99408.06;;;15.29
49154;BMP280;49455;52.252;9.124;2022-10-16T08:00:11;99416.75;;;15.35
49154;BMP280;49455;52.252;9.124;2022-10-16T08:05:12;99429.75;;;15.35
49154;BMP280;49455;52.252;9.124;2022-10-16T08:10:17;99422.81;;;15.34
49154;BMP280;49455;52.252;9.124;2022-10-16T08:15:18;99434.09;;;15.30
49154;BMP280;49455;52.252;9.124;2022-10-16T08:20:19;99428.06;;;15.36
49154;BMP280;49455;52.252;9.124;2022-10-16T08:25:20;99447.13;;;15.30
49154;BMP280;49455;52.252;9.124;2022-10-16T08:30:22;99448.91;;;15.42
49154;BMP280;49455;52.252;9.124;2022-10-16T08:35:22;99444.59;;;15.49
49154;BMP280;49455;52.252;9.124;2022-10-16T08:40:28;99451.63;;;15.68
49154;BMP280;49455;52.252;9.124;2022-10-16T08:50:38;99462.97;;;16.05
49154;BMP280;49455;52.252;9.124;2022-10-16T09:00:39;99479.53;;;16.13
49154;BMP280;49455;52.252;9.124;2022-10-16T09:05:52;99491.72;;;16.20
49154;BMP280;49455;52.252;9.124;2022-10-16T09:16:32;99482.19;;;16.35
49154;BMP280;49455;52.252;9.124;2022-10-16T09:21:44;99502.22;;;16.47
49154;BMP280;49455;52.252;9.124;2022-10-16T09:26:46;99502.22;;;16.82
49154;BMP280;49455;52.252;9.124;2022-10-16T09:31:55;99491.75;;;16.88
49154;BMP280;49455;52.252;9.124;2022-10-16T09:36:58;99495.22;;;17.11
49154;BMP280;49455;52.252;9.124;2022-10-16T09:42:00;99509.16;;;17.01
49154;BMP280;49455;52.252;9.124;2022-10-16T09:47:23;99502.13;;;17.38
49154;BMP280;49455;52.252;9.124;2022-10-16T09:52:22;99515.19;;;17.43
49154;BMP280;49455;52.252;9.124;2022-10-16T09:57:25;99520.41;;;17.47
49154;BMP280;49455;52.252;9.124;2022-10-16T10:02:34;99522.19;;;17.36
49154;BMP280;49455;52.252;9.124;2022-10-16T10:07:42;99524.69;;;17.60
49154;BMP280;49455;52.252;9.124;2022-10-16T10:12:44;99524.72;;;17.57
49154;BMP280;49455;52.252;9.124;2022-10-16T10:17:53;99532.56;;;17.63
49154;BMP280;49455;52.252;9.124;2022-10-16T10:22:54;99529.88;;;17.73
49154;BMP280;49455;52.252;9.124;2022-10-16T10:28:17;99531.59;;;17.82
49154;BMP280;49455;52.252;9.124;2022-10-16T10:50:18;99545.13;;;18.60
49154;BMP280;49455;52.252;9.124;2022-10-16T10:54:57;99543.34;;;18.68
49154;BMP280;49455;52.252;9.124;2022-10-16T11:11:05;99560.38;;;17.68
49154;BMP280;49455;52.252;9.124;2022-10-16T11:16:27;99556.66;;;18.34
49154;BMP280;49455;52.252;9.124;2022-10-16T11:21:31;99553.66;;;18.92
49154;BMP280;49455;52.252;9.124;2022-10-16T11:26:39;99557.94;;;19.05
49154;BMP280;49455;52.252;9.124;2022-10-16T11:31:45;99572.84;;;18.97
49154;BMP280;49455;52.252;9.124;2022-10-16T11:36:56;99559.06;;;18.65
49154;BMP280;49455;52.252;9.124;2022-10-16T11:53:31;99574.63;;;18.86
49154;BMP280;49455;52.252;9.124;2022-10-16T12:04:03;99577.97;;;19.96
49154;BMP280;49455;52.252;9.124;2022-10-16T12:09:30;99573.59;;;19.97
49154;BMP280;49455;52.252;9.124;2022-10-16T12:14:39;99580.66;;;19.90
49154;BMP280;49455;52.252;9.124;2022-10-16T12:19:40;99590.13;;;20.04
49154;BMP280;49455;52.252;9.124;2022-10-16T12:24:42;99586.56;;;20.08
49154;BMP280;49455;52.252;9.124;2022-10-16T12:29:44;99582.16;;;20.10
49154;BMP280;49455;52.252;9.124;2022-10-16T12:34:44;99595.34;;;20.06
49154;BMP280;49455;52.252;9.124;2022-10-16T12:39:46;99593.66;;;20.00
49154;BMP280;49455;52.252;9.124;2022-10-16T12:44:48;99595.47;;;19.94
49154;BMP280;49455;52.252;9.124;2022-10-16T12:49:52;99608.28;;;20.21
49154;BMP280;49455;52.252;9.124;2022-10-16T12:54:56;99605.22;;;20.56
49154;BMP280;49455;52.252;9.124;2022-10-16T13:10:36;99628.50;;;19.24
49154;BMP280;49455;52.252;9.124;2022-10-16T13:15:58;99626.63;;;19.36
49154;BMP280;49455;52.252;9.124;2022-10-16T13:21:14;99630.72;;;19.67
49154;BMP280;49455;52.252;9.124;2022-10-16T13:26:22;99634.03;;;19.85
49154;BMP280;49455;52.252;9.124;2022-10-16T13:31:25;99644.31;;;20.07
49154;BMP280;49455;52.252;9.124;2022-10-16T13:36:33;99637.41;;;19.99
49154;BMP280;49455;52.252;9.124;2022-10-16T13:41:34;99630.84;;;20.35
49154;BMP280;49455;52.252;9.124;2022-10-16T13:46:34;99641.34;;;20.35
49154;BMP280;49455;52.252;9.124;2022-10-16T13:51:35;99636.13;;;20.30
49154;BMP280;49455;52.252;9.124;2022-10-16T13:56:35;99646.72;;;20.25
49154;BMP280;49455;52.252;9.124;2022-10-16T14:01:43;99647.28;;;20.50
49154;BMP280;49455;52.252;9.124;2022-10-16T14:06:46;99649.75;;;20.62
49154;BMP280;49455;52.252;9.124;2022-10-16T14:11:57;99668.38;;;20.41
49154;BMP280;49455;52.252;9.124;2022-10-16T14:16:58;99664.13;;;20.30
49154;BMP280;49455;52.252;9.124;2022-10-16T14:21:59;99661.19;;;19.79
49154;BMP280;49455;52.252;9.124;2022-10-16T14:27:02;99666.06;;;20.16
49154;BMP280;49455;52.252;9.124;2022-10-16T14:32:04;99672.38;;;19.98
49154;BMP280;49455;52.252;9.124;2022-10-16T14:37:25;99666.19;;;20.03
49154;BMP280;49455;52.252;9.124;2022-10-16T14:42:25;99675.91;;;19.95
49154;BMP280;49455;52.252;9.124;2022-10-16T14:47:27;99666.13;;;20.09
49154;BMP280;49455;52.252;9.124;2022-10-16T14:52:27;99673.44;;;19.80
49154;BMP280;49455;52.252;9.124;2022-10-16T14:57:31;99671.75;;;19.70
49154;BMP280;49455;52.252;9.124;2022-10-16T15:02:34;99684.84;;;19.70
49154;BMP280;49455;52.252;9.124;2022-10-16T15:07:34;99676.97;;;19.78
49154;BMP280;49455;52.252;9.124;2022-10-16T15:12:35;99681.25;;;19.88
49154;BMP280;49455;52.252;9.124;2022-10-16T15:17:35;99678.66;;;19.83
49154;BMP280;49455;52.252;9.124;2022-10-16T15:22:36;99692.25;;;19.26
49154;BMP280;49455;52.252;9.124;2022-10-16T15:27:36;99689.81;;;18.95
49154;BMP280;49455;52.252;9.124;2022-10-16T15:32:37;99703.94;;;18.60
49154;BMP280;49455;52.252;9.124;2022-10-16T15:37:37;99702.25;;;18.43
49154;BMP280;49455;52.252;9.124;2022-10-16T15:42:38;99696.06;;;18.60
49154;BMP280;49455;52.252;9.124;2022-10-16T15:47:39;99710.06;;;18.56
49154;BMP280;49455;52.252;9.124;2022-10-16T15:52:41;99725.03;;;18.20
49154;BMP280;49455;52.252;9.124;2022-10-16T15:57:41;99718.03;;;18.13
49154;BMP280;49455;52.252;9.124;2022-10-16T16:02:43;99724.16;;;17.88
49154;BMP280;49455;52.252;9.124;2022-10-16T16:07:43;99722.44;;;17.70
49154;BMP280;49455;52.252;9.124;2022-10-16T16:12:46;99728.53;;;17.30
49154;BMP280;49455;52.252;9.124;2022-10-16T16:17:47;99728.44;;;17.01
49154;BMP280;49455;52.252;9.124;2022-10-16T16:22:48;99725.72;;;16.73
49154;BMP280;49455;52.252;9.124;2022-10-16T16:27:49;99723.91;;;16.44
49154;BMP280;49455;52.252;9.124;2022-10-16T16:32:49;99737.75;;;16.35
49154;BMP280;49455;52.252;9.124;2022-10-16T16:37:49;99748.19;;;16.34
49154;BMP280;49455;52.252;9.124;2022-10-16T16:42:50;99754.94;;;16.08
49154;BMP280;49455;52.252;9.124;2022-10-16T16:47:50;99759.25;;;16.01
49154;BMP280;49455;52.252;9.124;2022-10-16T16:52:51;99748.72;;;15.89
49154;BMP280;49455;52.252;9.124;2022-10-16T16:57:51;99761.81;;;15.96
49154;BMP280;49455;52.252;9.124;2022-10-16T17:02:52;99775.00;;;16.12
49154;BMP280;49455;52.252;9.124;2022-10-16T17:07:52;99785.44;;;16.15
49154;BMP280;49455;52.252;9.124;2022-10-16T17:12:53;99791.44;;;16.10
49154;BMP280;49455;52.252;9.124;2022-10-16T17:17:53;99776.81;;;16.22
49154;BMP280;49455;52.252;9.124;2022-10-16T17:22:53;99784.63;;;16.27
49154;BMP280;49455;52.252;9.124;2022-10-16T17:27:54;99789.03;;;16.35
49154;BMP280;49455;52.252;9.124;2022-10-16T17:32:54;99796.00;;;16.33
49154;BMP280;49455;52.252;9.124;2022-10-16T17:37:55;99795.13;;;16.34
49154;BMP280;49455;52.252;9.124;2022-10-16T17:42:55;99792.47;;;16.28
49154;BMP280;49455;52.252;9.124;2022-10-16T17:47:59;99813.22;;;16.13
49154;BMP280;49455;52.252;9.124;2022-10-16T17:52:59;99806.16;;;16.01
49154;BMP280;49455;52.252;9.124;2022-10-16T17:58:00;99816.56;;;15.99
49154;BMP280;49455;52.252;9.124;2022-10-16T18:03:00;99823.50;;;16.00
49154;BMP280;49455;52.252;9.124;2022-10-16T18:08:00;99820.81;;;15.88
49154;BMP280;49455;52.252;9.124;2022-10-16T18:13:01;99825.84;;;15.68
49154;BMP280;49455;52.252;9.124;2022-10-16T18:18:01;99819.59;;;15.49
49154;BMP280;49455;52.252;9.124;2022-10-16T18:23:02;99840.28;;;15.38
49154;BMP280;49455;52.252;9.124;2022-10-16T18:28:02;99840.09;;;15.17
49154;BMP280;49455;52.252;9.124;2022-10-16T18:33:03;99840.22;;;15.29
49154;BMP280;49455;52.252;9.124;2022-10-16T18:38:03;99851.59;;;15.37
49154;BMP280;49455;52.252;9.124;2022-10-16T18:43:04;99862.91;;;15.43
49154;BMP280;49455;52.252;9.124;2022-10-16T18:48:04;99873.41;;;15.47
49154;BMP280;49455;52.252;9.124;2022-10-16T18:53:05;99877.78;;;15.51
49154;BMP280;49455;52.252;9.124;2022-10-16T18:58:05;99874.31;;;15.52
49154;BMP280;49455;52.252;9.124;2022-10-16T19:03:06;99870.75;;;15.46
49154;BMP280;49455;52.252;9.124;2022-10-16T19:08:06;99868.00;;;15.31
49154;BMP280;49455;52.252;9.124;2022-10-16T19:13:08;99861.09;;;15.35
49154;BMP280;49455;52.252;9.124;2022-10-16T19:18:08;99851.63;;;15.41
49154;BMP280;49455;52.252;9.124;2022-10-16T19:23:09;99852.44;;;15.36
49154;BMP280;49455;52.252;9.124;2022-10-16T19:28:09;99850.72;;;15.38
49154;BMP280;49455;52.252;9.124;2022-10-16T19:33:10;99862.94;;;15.44
49154;BMP280;49455;52.252;9.124;2022-10-16T19:38:10;99856.97;;;15.54
49154;BMP280;49455;52.252;9.124;2022-10-16T19:43:10;99857.00;;;15.56
49154;BMP280;49455;52.252;9.124;2022-10-16T19:48:11;99850.94;;;15.58
49154;BMP280;49455;52.252;9.124;2022-10-16T19:53:11;99852.81;;;15.71
49154;BMP280;49455;52.252;9.124;2022-10-16T19:58:12;99850.28;;;15.81
49154;BMP280;49455;52.252;9.124;2022-10-16T20:03:12;99848.56;;;15.82
49154;BMP280;49455;52.252;9.124;2022-10-16T20:08:13;99858.13;;;15.83
49154;BMP280;49455;52.252;9.124;2022-10-16T20:13:13;99840.78;;;15.85
49154;BMP280;49455;52.252;9.124;2022-10-16T20:18:14;99865.06;;;15.84
49154;BMP280;49455;52.252;9.124;2022-10-16T20:23:16;99882.47;;;15.86
49154;BMP280;49455;52.252;9.124;2022-10-16T20:28:19;99885.97;;;15.88
49154;BMP280;49455;52.252;9.124;2022-10-16T20:33:20;99880.72;;;15.87
49154;BMP280;49455;52.252;9.124;2022-10-16T20:38:21;99890.38;;;15.94
49154;BMP280;49455;52.252;9.124;2022-10-16T20:43:21;99866.13;;;16.01
49154;BMP280;49455;52.252;9.124;2022-10-16T20:48:21;99874.81;;;16.05
49154;BMP280;49455;52.252;9.124;2022-10-16T20:53:22;99873.22;;;16.16
49154;BMP280;49455;52.252;9.124;2022-10-16T20:58:22;99877.56;;;16.16
49154;BMP280;49455;52.252;9.124;2022-10-16T21:03:23;99889.72;;;16.12
49154;BMP280;49455;52.252;9.124;2022-10-16T21:08:23;99908.78;;;16.11
49154;BMP280;49455;52.252;9.124;2022-10-16T21:13:24;99927.94;;;16.13
49154;BMP280;49455;52.252;9.124;2022-10-16T21:18:26;99940.03;;;16.10
49154;BMP280;49455;52.252;9.124;2022-10-16T21:23:26;99914.75;;;15.99
49154;BMP280;49455;52.252;9.124;2022-10-16T21:28:30;99914.59;;;15.85
49154;BMP280;49455;52.252;9.124;2022-10-16T21:33:31;99904.84;;;15.65
49154;BMP280;49455;52.252;9.124;2022-10-16T21:38:31;99907.25;;;15.49
49154;BMP280;49455;52.252;9.124;2022-10-16T21:43:32;99901.06;;;15.37
49154;BMP280;49455;52.252;9.124;2022-10-16T21:48:32;99914.94;;;15.36
49154;BMP280;49455;52.252;9.124;2022-10-16T21:53:33;99902.81;;;15.39
49154;BMP280;49455;52.252;9.124;2022-10-16T21:58:33;99908.97;;;15.45
49154;BMP280;49455;52.252;9.124;2022-10-16T22:03:34;99907.28;;;15.50
49154;BMP280;49455;52.252;9.124;2022-10-16T22:08:35;99906.41;;;15.50
49154;BMP280;49455;52.252;9.124;2022-10-16T22:13:36;99919.47;;;15.54
49154;BMP280;49455;52.252;9.124;2022-10-16T22:18:37;99920.44;;;15.62
